Time;durP1;ratioP1;P1;durP2;ratioP2;P2;SDS_P1;SDS_P2;PMS_P1;PMS_P2;Temp;Humidity;BMP_temperature;BMP_pressure;BME280_temperature;BME280_humidity;BME280_pressure;Samples;Min_cycle;Max_cycle;Signal;HPM_P1;HPM_P2
2022/08/14 00:00:48;;;;;;;17.45;12.30;;;;;;;20.68;68.41;100089.66;5052643;28;20267;-54
2022/08/14 00:03:26;;;;;;;19.77;13.52;;;;;;;20.35;68.84;100043.22;5062476;28;20037;-55
2022/08/14 00:05:52;;;;;;;19.90;13.35;;;;;;;20.68;68.40;100094.91;5061674;28;20021;-56
2022/08/14 00:08:18;;;;;;;18.88;13.07;;;;;;;20.72;68.09;100101.69;5063635;28;20021;-55
2022/08/14 00:10:44;;;;;;;15.68;12.57;;;;;;;20.72;68.16;100100.84;5065319;28;20096;-55
2022/08/14 00:13:10;;;;;;;15.05;12.70;;;;;;;20.62;68.55;100103.09;5064358;28;20030;-55
2022/08/14 00:15:42;;;;;;;17.08;12.95;;;;;;;20.29;68.68;100052.28;5064125;28;20021;-55
2022/08/14 00:18:09;;;;;;;17.45;12.32;;;;;;;20.29;68.85;100054.09;5063390;28;20327;-55
2022/08/14 00:20:37;;;;;;;16.25;12.35;;;;;;;20.02;68.47;100028.38;5061694;28;20088;-55
2022/08/14 00:23:05;;;;;;;18.35;12.32;;;;;;;20.22;68.89;100052.72;5062374;28;20028;-55
2022/08/14 00:25:31;;;;;;;17.95;12.27;;;;;;;20.49;68.74;100095.06;5063774;28;20021;-55
2022/08/14 00:27:57;;;;;;;18.80;13.10;;;;;;;20.49;69.07;100102.94;5063491;28;20071;-55
2022/08/14 00:30:22;;;;;;;16.90;12.43;;;;;;;20.41;69.18;100106.03;5063844;28;20021;-55
2022/08/14 00:32:48;;;;;;;16.65;12.68;;;;;;;20.36;68.68;100087.00;5064130;28;20035;-55
2022/08/14 00:35:14;;;;;;;16.60;12.70;;;;;;;20.40;69.16;100093.78;5063797;28;20027;-55
2022/08/14 00:37:43;;;;;;;16.05;11.80;;;;;;;20.36;69.22;100087.00;5059386;28;20017;-56
2022/08/14 00:40:12;;;;;;;16.02;12.48;;;;;;;20.27;69.00;100077.00;5062820;28;20033;-56
2022/08/14 00:42:38;;;;;;;17.67;12.40;;;;;;;20.33;68.99;100093.28;5061824;28;20025;-55
2022/08/14 00:45:08;;;;;;;17.25;11.90;;;;;;;20.25;69.17;100078.84;5062972;28;20020;-55
2022/08/14 00:47:34;;;;;;;15.82;12.25;;;;;;;20.31;69.29;100089.06;5066369;28;20023;-56
2022/08/14 00:50:01;;;;;;;13.82;12.02;;;;;;;20.31;68.99;100089.06;5063653;28;20024;-57
2022/08/14 00:52:30;;;;;;;14.20;11.70;;;;;;;20.28;69.53;100099.72;5063668;28;20075;-55
2022/08/14 00:54:57;;;;;;;14.77;12.20;;;;;;;20.18;69.22;100089.72;5061376;28;20080;-53
2022/08/14 00:57:28;;;;;;;15.15;12.40;;;;;;;20.21;69.41;100090.47;5063630;28;20107;-54
2022/08/14 00:59:56;;;;;;;14.75;11.77;;;;;;;20.20;69.34;100089.63;5063827;28;20021;-54
2022/08/14 01:02:26;;;;;;;15.95;11.85;;;;;;;20.18;69.45;100088.88;5060801;28;20045;-55
2022/08/14 01:04:56;;;;;;;13.20;11.55;;;;;;;20.18;69.27;100095.00;5057670;28;20017;-54
2022/08/14 01:07:23;;;;;;;15.93;11.90;;;;;;;20.16;69.74;100093.38;5052862;28;20353;-54
2022/08/14 01:09:55;;;;;;;14.40;11.02;;;;;;;20.16;69.65;100094.22;5067852;28;20024;-54
2022/08/14 01:12:23;;;;;;;15.70;11.75;;;;;;;19.81;70.11;100044.41;5063246;28;20136;-54
2022/08/14 01:14:53;;;;;;;12.52;11.20;;;;;;;20.12;70.03;100095.34;5060767;28;20037;-54
2022/08/14 01:21:02;;;;;;;14.43;11.20;;;;;;;20.09;70.44;100100.72;5056612;28;20033;-54
2022/08/14 01:22:54;;;;;;;15.15;10.90;;;;;;;20.07;70.19;100112.28;5060462;28;20067;-54
2022/08/14 01:25:20;;;;;;;15.23;11.02;;;;;;;20.02;69.90;100107.25;5063110;28;20194;-54
2022/08/14 01:27:45;;;;;;;15.27;11.10;;;;;;;20.00;70.06;100106.50;5063203;28;20062;-55
2022/08/14 01:30:12;;;;;;;15.27;10.35;;;;;;;20.00;69.92;100101.25;5076332;28;20028;-55
2022/08/14 01:32:37;;;;;;;14.10;9.73;;;;;;;20.00;69.50;100109.13;5083408;28;20024;-55
2022/08/14 01:35:06;;;;;;;12.43;10.75;;;;;;;19.94;69.42;100089.28;5065609;28;20102;-55
2022/08/14 01:37:32;;;;;;;13.57;10.73;;;;;;;19.88;69.17;100094.00;5060668;28;20028;-55
2022/08/14 01:39:58;;;;;;;14.30;9.70;;;;;;;19.91;69.30;100101.72;5060904;28;20064;-54
2022/08/14 01:42:27;;;;;;;17.42;10.13;;;;;;;19.90;69.45;100107.94;5063899;28;20024;-55
2022/08/14 01:44:57;;;;;;;14.40;9.98;;;;;;;19.92;69.36;100096.38;5064067;28;20028;-54
2022/08/14 01:47:24;;;;;;;12.00;10.05;;;;;;;19.88;69.29;100105.41;5053023;28;20045;-54
2022/08/14 01:49:50;;;;;;;13.00;9.60;;;;;;;19.87;69.44;100108.13;5061483;28;20032;-54
2022/08/14 01:52:16;;;;;;;14.68;10.30;;;;;;;19.88;69.67;100109.78;5063230;28;20050;-54
2022/08/14 01:54:43;;;;;;;13.85;9.45;;;;;;;19.80;69.58;100104.94;5062759;28;20028;-54
2022/08/14 01:57:10;;;;;;;11.63;9.82;;;;;;;19.70;69.65;100082.69;5075827;28;20032;-54
2022/08/14 01:59:38;;;;;;;13.13;9.95;;;;;;;19.81;69.98;100112.75;5083025;28;20157;-54
2022/08/14 02:02:11;;;;;;;11.93;9.98;;;;;;;19.70;70.19;100103.72;5069376;28;20022;-54
2022/08/14 02:04:37;;;;;;;11.13;10.00;;;;;;;19.67;70.92;100109.97;5054238;28;20052;-55
2022/08/14 02:07:04;;;;;;;11.52;10.02;;;;;;;19.67;71.30;100117.84;5069096;28;20063;-55
2022/08/14 02:09:34;;;;;;;11.73;9.18;;;;;;;19.63;70.51;100104.00;5046657;28;20044;-55
2022/08/14 02:12:01;;;;;;;11.70;9.95;;;;;;;19.68;71.04;100114.28;5062368;28;20025;-54
2022/08/14 02:14:28;;;;;;;14.15;10.15;;;;;;;19.63;70.69;100108.44;5063720;28;20328;-54
2022/08/14 02:16:56;;;;;;;11.88;10.32;;;;;;;19.52;71.66;100116.03;5065308;28;20066;-55
2022/08/14 02:19:25;;;;;;;11.82;10.25;;;;;;;19.19;71.18;100065.13;5079960;28;20029;-54
2022/08/14 02:21:58;;;;;;;13.80;10.05;;;;;;;19.17;71.12;100058.25;5081937;28;20031;-54
2022/08/14 02:24:28;;;;;;;14.43;10.38;;;;;;;19.15;71.56;100071.47;5075006;28;20025;-54
2022/08/14 02:26:57;;;;;;;14.13;10.73;;;;;;;19.45;71.55;100111.09;5062725;28;20092;-54
2022/08/14 02:29:24;;;;;;;13.98;10.18;;;;;;;19.16;71.56;100072.34;5066420;28;20024;-55
2022/08/14 02:31:52;;;;;;;12.05;9.10;;;;;;;19.41;71.47;100112.19;5060605;28;20048;-55
2022/08/14 02:34:21;;;;;;;11.40;9.93;;;;;;;19.46;71.91;100141.66;5046677;28;20033;-55
2022/08/14 02:36:50;;;;;;;12.15;9.60;;;;;;;19.44;71.74;100122.53;5061462;28;20025;-54
2022/08/14 02:39:16;;;;;;;13.18;10.52;;;;;;;19.42;72.27;100126.16;5048410;28;20060;-54
2022/08/14 02:41:43;;;;;;;12.40;9.90;;;;;;;19.38;71.98;100120.22;5055918;28;20082;-54
2022/08/14 02:44:11;;;;;;;17.48;11.27;;;;;;;19.33;72.66;100119.59;5060044;28;20028;-55
2022/08/14 02:46:37;;;;;;;11.98;10.65;;;;;;;19.43;72.57;100123.44;5066488;28;20016;-55
2022/08/14 02:49:05;;;;;;;13.60;10.48;;;;;;;19.43;71.96;100130.47;5066322;28;20017;-55
2022/08/14 02:51:33;;;;;;;13.57;10.63;;;;;;;19.42;72.47;100121.72;5048898;28;20047;-56
2022/08/14 02:54:00;;;;;;;13.68;10.45;;;;;;;19.46;72.48;100138.19;5069002;28;20069;-55
2022/08/14 02:56:26;;;;;;;14.35;10.07;;;;;;;19.47;72.48;100132.88;5062088;28;20321;-55
2022/08/14 02:58:55;;;;;;;13.15;10.60;;;;;;;19.19;72.14;100088.78;5067507;28;20052;-54
2022/08/14 03:01:22;;;;;;;14.32;10.05;;;;;;;19.49;72.45;100128.38;5068045;28;20325;-54
2022/08/14 03:03:49;;;;;;;18.67;10.50;;;;;;;19.56;72.27;100128.06;5047978;28;20341;-54
2022/08/14 03:06:19;;;;;;;12.23;9.60;;;;;;;19.33;71.48;100084.63;5071257;28;20062;-55
2022/08/14 03:08:46;;;;;;;12.00;8.85;;;;;;;19.60;71.35;100121.72;5065839;28;20313;-55
2022/08/14 03:11:12;;;;;;;18.17;10.05;;;;;;;19.74;71.84;100132.38;5065394;28;20103;-55
2022/08/14 03:13:41;;;;;;;13.00;9.60;;;;;;;19.49;71.58;100088.13;5065666;28;20029;-54
2022/08/14 03:16:14;;;;;;;14.35;9.25;;;;;;;19.82;72.11;100148.63;5065715;28;20375;-55
2022/08/14 03:18:42;;;;;;;12.02;9.50;;;;;;;19.80;71.86;100132.06;5053806;28;20033;-54
2022/08/14 03:21:12;;;;;;;15.40;10.27;;;;;;;19.83;71.82;100147.69;5053212;28;20025;-54
2022/08/14 03:23:39;;;;;;;15.65;10.45;;;;;;;19.95;71.86;100137.44;5059854;28;20017;-55
2022/08/14 03:26:10;;;;;;;12.75;9.70;;;;;;;19.73;71.53;100087.78;5051249;28;20032;-55
2022/08/14 03:28:39;;;;;;;16.57;10.60;;;;;;;20.04;71.74;100142.22;5057487;28;20317;-55
2022/08/14 03:31:06;;;;;;;16.15;10.20;;;;;;;20.12;71.29;100140.03;5045904;28;20025;-54
2022/08/14 03:33:36;;;;;;;12.95;9.98;;;;;;;20.20;71.29;100139.63;5045772;28;20052;-54
2022/08/14 03:36:08;;;;;;;14.13;10.05;;;;;;;20.01;71.49;100108.22;5054582;28;20061;-55
2022/08/14 03:38:41;;;;;;;11.30;9.63;;;;;;;20.25;71.63;100134.97;5066999;28;20108;-55
2022/08/14 03:41:15;;;;;;;10.70;8.82;;;;;;;20.25;69.71;100102.53;5061777;28;20029;-55
2022/08/14 03:43:45;;;;;;;9.95;8.60;;;;;;;20.59;69.31;100133.06;5064877;28;20025;-54
2022/08/14 03:46:12;;;;;;;12.35;9.02;;;;;;;20.66;69.26;100152.00;5055526;28;20068;-56
2022/08/14 03:48:39;;;;;;;12.10;8.63;;;;;;;20.70;68.83;100140.41;5062681;28;20029;-54
2022/08/14 03:51:09;;;;;;;12.68;8.98;;;;;;;20.79;69.09;100145.19;5053015;28;20068;-54
2022/08/14 03:53:41;;;;;;;10.63;8.02;;;;;;;20.88;68.38;100135.03;5059931;28;20025;-54
2022/08/14 03:56:12;;;;;;;10.35;7.50;;;;;;;20.95;68.38;100152.19;5064605;28;20057;-54
2022/08/14 03:58:41;;;;;;;9.52;8.57;;;;;;;20.71;69.08;100096.50;5065304;28;20048;-54
2022/08/14 04:01:08;;;;;;;9.70;7.25;;;;;;;21.11;67.67;100142.47;5058992;28;20040;-54
2022/08/14 04:03:34;;;;;;;10.63;8.50;;;;;;;21.12;67.26;100133.63;5079705;28;20021;-54
2022/08/14 04:06:00;;;;;;;11.95;7.97;;;;;;;21.29;66.69;100134.41;5073366;28;20102;-54
2022/08/14 04:08:26;;;;;;;13.15;8.43;;;;;;;21.37;65.79;100142.72;5060372;28;20321;-54
2022/08/14 04:10:51;;;;;;;10.68;8.73;;;;;;;21.47;65.79;100133.31;5062349;28;20025;-54
2022/08/14 04:13:18;;;;;;;10.15;7.40;;;;;;;21.51;65.20;100139.28;5064833;28;20053;-54
2022/08/14 04:15:46;;;;;;;9.50;7.85;;;;;;;21.62;65.68;100139.50;5050125;28;20075;-54
2022/08/14 04:18:13;;;;;;;9.82;6.82;;;;;;;21.58;64.82;100123.94;5052001;28;20034;-54
2022/08/14 04:20:41;;;;;;;7.78;6.95;;;;;;;21.55;64.54;100098.66;5048022;28;20052;-54
2022/08/14 04:23:08;;;;;;;6.75;6.05;;;;;;;21.34;64.26;100088.41;5044509;28;20025;-54
2022/08/14 04:25:35;;;;;;;9.10;5.97;;;;;;;21.71;64.64;100141.56;5057155;28;20029;-54
2022/08/14 04:28:02;;;;;;;6.35;5.75;;;;;;;21.70;64.66;100133.75;5063915;28;20020;-54
2022/08/14 04:30:29;;;;;;;8.45;6.32;;;;;;;21.89;64.74;100144.88;5064382;28;20036;-54
2022/08/14 04:32:56;;;;;;;8.02;6.28;;;;;;;21.98;65.15;100137.34;5053049;28;20022;-55
2022/08/14 04:35:22;;;;;;;9.43;6.78;;;;;;;21.84;64.15;100141.69;5045546;28;20037;-55
2022/08/14 04:43:35;;;;;;;9.65;6.25;;;;;;;22.04;64.11;100118.50;5060266;28;20033;-55
2022/08/14 04:46:12;;;;;;;6.18;5.57;;;;;;;22.26;64.60;100143.53;5070515;28;20337;-54
2022/08/14 04:48:39;;;;;;;8.57;6.78;;;;;;;22.23;64.12;100142.81;5055734;28;20041;-55
2022/08/14 04:51:07;;;;;;;7.35;6.53;;;;;;;22.19;63.54;100114.91;5062966;28;20245;-55
2022/08/14 04:53:34;;;;;;;7.70;6.93;;;;;;;22.40;63.60;100143.53;5063966;28;20217;-54
2022/08/14 04:55:59;;;;;;;10.30;7.22;;;;;;;22.41;62.95;100146.06;5061129;28;20044;-53
2022/08/14 04:58:28;;;;;;;11.88;7.85;;;;;;;22.43;63.21;100156.53;5043638;28;20257;-54
2022/08/14 05:00:55;;;;;;;8.40;7.30;;;;;;;22.46;62.76;100145.81;5056246;28;20044;-54
2022/08/14 05:03:24;;;;;;;9.80;7.53;;;;;;;22.58;62.13;100142.38;5057492;28;20092;-54
2022/08/14 05:05:52;;;;;;;9.10;7.03;;;;;;;22.86;61.59;100098.31;5063764;28;20021;-54
2022/08/14 05:08:19;;;;;;;10.00;7.40;;;;;;;23.36;60.41;100146.13;5063656;28;20021;-54
2022/08/14 05:10:53;;;;;;;11.13;7.45;;;;;;;23.88;59.97;100119.72;5053173;28;20056;-54
2022/08/14 05:13:24;;;;;;;9.18;6.53;;;;;;;24.29;58.36;100143.22;5043871;28;20037;-54
2022/08/14 05:15:51;;;;;;;9.10;7.57;;;;;;;24.55;58.56;100143.16;5078243;28;20032;-53
2022/08/14 05:18:22;;;;;;;10.13;7.78;;;;;;;24.25;57.61;100106.50;5057656;28;20031;-54
2022/08/14 05:20:55;;;;;;;9.32;7.50;;;;;;;24.40;57.92;100129.22;5070508;28;20317;-54
2022/08/14 05:23:25;;;;;;;13.23;8.00;;;;;;;24.36;58.21;100140.16;5073104;28;20037;-54
2022/08/14 05:25:54;;;;;;;10.40;7.95;;;;;;;23.62;57.83;100087.97;5044450;28;20025;-54
2022/08/14 05:28:22;;;;;;;9.73;8.38;;;;;;;23.94;58.60;100138.66;5063131;28;20277;-54
2022/08/14 05:31:05;;;;;;;9.48;8.30;;;;;;;24.07;58.71;100135.13;5046463;28;20026;-53
2022/08/14 05:33:31;;;;;;;9.38;8.18;;;;;;;24.15;58.50;100130.13;5072440;28;20260;-54
2022/08/14 05:36:00;;;;;;;8.95;8.05;;;;;;;24.15;57.50;100131.94;5076904;28;20309;-54
2022/08/14 05:38:32;;;;;;;9.20;7.63;;;;;;;24.23;58.57;100127.81;5063068;28;20049;-54
2022/08/14 05:40:59;;;;;;;13.13;8.25;;;;;;;24.22;58.45;100125.25;5063172;28;20274;-53
2022/08/14 05:43:25;;;;;;;9.98;7.95;;;;;;;24.44;58.15;100124.53;5062855;28;20214;-54
2022/08/14 05:45:51;;;;;;;10.45;7.60;;;;;;;24.50;58.58;100123.25;5052462;28;20029;-54
2022/08/14 05:48:16;;;;;;;8.75;7.30;;;;;;;24.61;58.43;100131.28;5074259;28;20185;-53
2022/08/14 05:50:42;;;;;;;8.90;7.32;;;;;;;24.63;58.19;100127.59;5075081;28;20072;-53
2022/08/14 05:53:08;;;;;;;8.73;7.40;;;;;;;24.62;57.20;100127.69;5066143;28;20047;-53
2022/08/14 05:55:33;;;;;;;15.00;7.45;;;;;;;24.67;56.76;100122.91;5070239;28;20021;-54
2022/08/14 05:58:06;;;;;;;11.27;7.70;;;;;;;24.74;56.58;100125.94;5063352;28;20089;-54
2022/08/14 06:00:37;;;;;;;10.13;7.20;;;;;;;24.77;57.09;100123.06;5063781;28;20035;-54
2022/08/14 06:03:06;;;;;;;9.05;6.50;;;;;;;24.86;56.56;100134.81;5073557;28;20143;-54
2022/08/14 06:05:33;;;;;;;7.75;6.60;;;;;;;24.90;56.46;100115.91;5082570;28;20337;-54
2022/08/14 06:07:59;;;;;;;8.80;6.88;;;;;;;24.89;56.05;100106.25;5079709;28;20078;-54
2022/08/14 06:10:30;;;;;;;10.50;6.43;;;;;;;25.06;55.68;100110.28;5059174;28;20020;-54
2022/08/14 06:13:02;;;;;;;8.03;6.00;;;;;;;25.24;55.17;100120.47;5061480;28;20053;-54
2022/08/14 06:15:28;;;;;;;11.57;6.70;;;;;;;25.29;55.26;100111.19;5060599;28;20433;-53
2022/08/14 06:17:57;;;;;;;8.43;6.18;;;;;;;25.27;55.04;100121.09;5055997;28;20021;-54
2022/08/14 06:20:23;;;;;;;8.40;6.05;;;;;;;25.33;53.69;100112.69;5061929;28;20364;-54
2022/08/14 06:22:49;;;;;;;7.10;4.95;;;;;;;25.23;53.01;100127.56;5054232;28;20100;-54
2022/08/14 06:25:15;;;;;;;12.25;5.57;;;;;;;25.45;54.09;100118.88;5045605;28;20032;-53
2022/08/14 06:27:45;;;;;;;5.90;5.20;;;;;;;25.28;53.92;100072.41;5073046;28;20013;-53
2022/08/14 06:30:21;;;;;;;6.82;6.13;;;;;;;25.55;54.18;100112.84;5055198;28;20056;-53
2022/08/14 06:32:48;;;;;;;8.30;6.53;;;;;;;25.63;53.29;100121.06;5062991;28;20024;-53
2022/08/14 06:35:16;;;;;;;7.65;5.70;;;;;;;25.46;52.23;100125.00;5082010;28;20073;-54
2022/08/14 06:37:48;;;;;;;7.82;5.75;;;;;;;25.23;52.86;100069.25;5062784;28;20299;-54
2022/08/14 06:40:17;;;;;;;11.02;6.63;;;;;;;25.44;52.32;100121.59;5058846;28;20033;-54
2022/08/14 06:42:43;;;;;;;7.90;6.43;;;;;;;25.53;52.83;100126.22;5051593;28;20040;-53
2022/08/14 06:45:09;;;;;;;9.07;5.93;;;;;;;25.52;52.44;100127.19;5064978;28;20029;-53
2022/08/14 06:47:40;;;;;;;15.23;7.40;;;;;;;25.59;53.23;100128.38;5053108;28;20199;-53
2022/08/14 06:50:10;;;;;;;10.40;7.47;;;;;;;25.33;53.88;100080.03;5066338;28;20044;-54
2022/08/14 06:52:36;;;;;;;7.82;7.03;;;;;;;25.56;54.00;100118.03;5066537;28;20052;-54
2022/08/14 06:55:04;;;;;;;9.30;6.70;;;;;;;25.69;53.44;100128.53;5056096;28;20036;-54
2022/08/14 06:57:38;;;;;;;9.73;7.10;;;;;;;25.51;53.31;100130.81;5065523;28;20112;-54
2022/08/14 07:00:09;;;;;;;20.80;7.85;;;;;;;25.81;53.65;100142.63;5055851;28;20030;-53
2022/08/14 07:08:04;;;;;;;9.40;6.85;;;;;;;25.77;53.28;100120.00;5082146;28;20205;-54
2022/08/14 07:10:31;;;;;;;8.70;6.95;;;;;;;25.97;52.82;100115.75;5054438;28;20057;-54
2022/08/14 07:12:57;;;;;;;8.48;6.00;;;;;;;26.10;52.71;100123.63;5065425;28;20155;-54
2022/08/14 07:15:23;;;;;;;8.75;6.43;;;;;;;26.15;52.72;100118.78;5053129;28;20072;-55
2022/08/14 07:17:50;;;;;;;10.65;6.15;;;;;;;26.21;52.14;100115.66;5063084;28;20259;-57
2022/08/14 07:20:19;;;;;;;7.95;5.50;;;;;;;26.38;51.93;100111.63;5061323;28;20037;-54
2022/08/14 07:22:49;;;;;;;8.50;6.32;;;;;;;26.35;51.01;100123.34;5057650;28;20337;-54
2022/08/14 07:25:15;;;;;;;11.07;5.65;;;;;;;26.46;51.42;100111.81;5045429;28;20064;-54
2022/08/14 07:27:41;;;;;;;7.47;5.72;;;;;;;26.27;49.69;100115.13;5047106;28;20025;-54
2022/08/14 07:30:08;;;;;;;8.48;5.30;;;;;;;26.18;50.15;100118.53;5075876;28;20029;-55
2022/08/14 07:32:34;;;;;;;6.38;5.05;;;;;;;26.32;50.65;100114.75;5085477;28;20032;-55
2022/08/14 07:34:59;;;;;;;8.95;5.18;;;;;;;26.39;50.21;100113.28;5073737;28;20025;-56
2022/08/14 07:37:25;;;;;;;8.05;5.25;;;;;;;26.51;50.05;100114.97;5067474;28;20289;-55
2022/08/14 07:39:50;;;;;;;5.90;5.13;;;;;;;26.52;48.85;100121.09;5068883;28;20057;-56
2022/08/14 07:42:16;;;;;;;6.43;5.15;;;;;;;26.49;48.25;100118.72;5063147;28;20036;-55
2022/08/14 07:44:42;;;;;;;5.43;4.93;;;;;;;26.49;48.54;100105.44;5056677;28;20032;-54
2022/08/14 07:47:08;;;;;;;23.70;5.72;;;;;;;26.61;49.29;100109.75;5059067;28;20306;-55
2022/08/14 07:49:34;;;;;;;5.55;5.07;;;;;;;26.79;47.99;100112.72;5045597;28;20107;-55
2022/08/14 07:52:02;;;;;;;6.85;5.20;;;;;;;26.79;48.56;100106.56;5062408;28;20034;-55
2022/08/14 07:54:28;;;;;;;6.55;5.28;;;;;;;26.72;47.24;100116.00;5074436;28;20293;-58
2022/08/14 07:56:53;;;;;;;9.18;5.55;;;;;;;26.78;47.52;100115.50;5064057;28;20021;-55
2022/08/14 07:59:20;;;;;;;8.10;5.53;;;;;;;26.91;46.82;100115.31;5062327;28;20245;-55
2022/08/14 08:01:47;;;;;;;8.52;5.72;;;;;;;27.04;47.14;100121.31;5064693;28;20221;-58
2022/08/14 08:04:13;;;;;;;5.63;5.03;;;;;;;27.04;46.54;100119.50;5058376;28;20347;-56
2022/08/14 08:06:39;;;;;;;6.05;5.05;;;;;;;27.16;46.42;100108.78;5061799;28;20309;-56
2022/08/14 08:09:08;;;;;;;6.55;4.82;;;;;;;26.88;46.00;100065.94;5065483;28;20028;-55
2022/08/14 08:11:35;;;;;;;6.10;5.50;;;;;;;27.30;47.19;100116.44;5064326;28;20292;-55
2022/08/14 08:14:05;;;;;;;7.90;5.80;;;;;;;27.03;47.01;100063.78;5057109;28;20334;-55
2022/08/14 08:16:33;;;;;;;6.00;5.43;;;;;;;26.96;44.34;100074.09;5044698;28;20025;-55
2022/08/14 08:19:01;;;;;;;6.65;4.30;;;;;;;27.31;43.54;100110.16;5049477;28;20021;-55
2022/08/14 08:21:28;;;;;;;4.80;4.35;;;;;;;27.46;44.50;100112.50;5052042;28;20051;-55
2022/08/14 08:23:53;;;;;;;7.55;5.35;;;;;;;27.36;44.18;100107.13;5062838;28;20028;-55
2022/08/14 08:26:19;;;;;;;5.47;4.93;;;;;;;27.53;44.83;100111.88;5064463;28;20147;-55
2022/08/14 08:28:56;;;;;;;5.60;4.55;;;;;;;27.65;44.98;100115.28;5061961;28;20028;-55
2022/08/14 08:31:22;;;;;;;6.72;5.13;;;;;;;27.63;42.21;100113.72;5061079;28;20025;-55
2022/08/14 08:33:51;;;;;;;6.05;4.88;;;;;;;27.24;45.35;100066.44;5063208;28;20032;-56
2022/08/14 08:36:17;;;;;;;6.22;4.30;;;;;;;27.61;44.29;100095.22;5065175;28;20084;-55
2022/08/14 08:38:46;;;;;;;8.60;5.63;;;;;;;27.74;43.81;100105.66;5083652;28;20053;-55
2022/08/14 08:41:12;;;;;;;8.07;5.50;;;;;;;27.83;43.38;100109.31;5079356;28;20028;-54
2022/08/14 08:43:39;;;;;;;8.75;5.38;;;;;;;27.94;43.63;100114.56;5045433;28;20032;-55
2022/08/14 08:46:13;;;;;;;5.88;4.82;;;;;;;27.57;41.68;100072.50;5051355;28;20028;-55
2022/08/14 08:48:45;;;;;;;7.28;5.00;;;;;;;27.96;42.34;100107.28;5059173;28;20056;-55
2022/08/14 08:51:30;;;;;;;5.28;4.50;;;;;;;28.12;41.47;100113.94;5051528;28;20325;-55
2022/08/14 08:54:05;;;;;;;8.27;5.70;;;;;;;27.96;41.85;100104.63;5044146;28;20068;-57
2022/08/14 08:56:40;;;;;;;8.02;5.05;;;;;;;28.11;41.63;100097.13;5057346;28;20033;-56
2022/08/14 08:59:22;;;;;;;7.55;4.90;;;;;;;28.31;41.81;100103.31;5058063;28;20020;-56
2022/08/14 09:01:51;;;;;;;5.35;4.70;;;;;;;28.39;41.64;100098.16;5040695;28;20364;-56
2022/08/14 09:04:18;;;;;;;5.30;4.70;;;;;;;28.47;41.01;100089.47;5059027;28;20298;-55
2022/08/14 09:06:46;;;;;;;9.48;5.30;;;;;;;28.57;41.93;100095.66;5064220;28;20086;-55
2022/08/14 09:09:18;;;;;;;5.20;4.47;;;;;;;28.82;39.12;100093.44;5060970;28;20027;-56
2022/08/14 09:11:44;;;;;;;5.45;4.55;;;;;;;28.57;38.52;100085.00;5062664;28;20062;-56
2022/08/14 09:14:10;;;;;;;4.05;3.75;;;;;;;28.51;38.87;100093.53;5057913;28;20044;-55
2022/08/14 09:16:35;;;;;;;5.07;4.28;;;;;;;28.69;39.83;100088.41;5058076;28;20043;-55
2022/08/14 09:19:01;;;;;;;5.22;4.32;;;;;;;28.79;40.08;100087.53;5059974;28;20045;-54
2022/08/14 09:21:28;;;;;;;5.78;4.25;;;;;;;28.98;39.23;100095.53;5043526;28;20017;-54
2022/08/14 09:23:54;;;;;;;4.43;4.03;;;;;;;28.96;39.48;100089.50;5049450;28;20084;-55
2022/08/14 09:26:19;;;;;;;4.93;3.83;;;;;;;28.67;37.81;100090.34;5044999;28;20069;-55
2022/08/14 09:28:45;;;;;;;6.03;4.38;;;;;;;28.52;41.31;100083.72;5063336;28;20052;-54
2022/08/14 09:31:13;;;;;;;8.05;4.78;;;;;;;28.51;41.60;100077.53;5060315;28;20052;-54
2022/08/14 09:34:02;;;;;;;6.38;4.38;;;;;;;28.37;41.64;100060.13;5083020;28;20059;-54
2022/08/14 09:36:28;;;;;;;4.55;4.15;;;;;;;28.39;42.57;100086.66;5053953;28;20122;-54
2022/08/14 09:39:15;;;;;;;5.30;3.92;;;;;;;28.33;42.48;100066.75;5050971;28;20288;-54
2022/08/14 09:42:03;;;;;;;5.15;4.15;;;;;;;28.29;40.03;100083.13;5051688;28;20064;-55
2022/08/14 09:44:57;;;;;;;5.97;4.47;;;;;;;28.38;40.94;100066.31;5063931;28;20028;-55
2022/08/14 09:47:49;;;;;;;4.45;4.05;;;;;;;27.84;40.39;100034.66;5061914;28;20024;-54
2022/08/14 09:50:21;;;;;;;4.90;4.40;;;;;;;27.75;40.85;100077.19;5055516;28;20051;-55
2022/08/14 09:52:51;;;;;;;4.22;3.80;;;;;;;27.98;40.84;100069.88;5059302;28;20105;-55
2022/08/14 09:55:18;;;;;;;28.80;24.77;;;;;;;27.98;40.70;100067.22;5061997;28;20029;-55
2022/08/14 09:57:45;;;;;;;7.30;4.53;;;;;;;28.15;41.01;100079.88;5054516;28;20581;-55
2022/08/14 10:00:15;;;;;;;5.15;4.30;;;;;;;28.22;40.75;100074.88;5058215;28;20046;-56
2022/08/14 10:02:52;;;;;;;5.60;4.07;;;;;;;28.04;41.58;100040.88;5059486;28;20025;-56
2022/08/14 10:05:33;;;;;;;6.60;4.85;;;;;;;28.31;40.60;100089.19;5057422;28;20031;-55
2022/08/14 10:08:01;;;;;;;4.32;3.90;;;;;;;27.88;40.43;100036.06;5049420;28;20037;-55
2022/08/14 10:10:39;;;;;;;4.28;3.70;;;;;;;27.72;40.43;100047.22;5057686;28;20041;-55
2022/08/14 10:13:21;;;;;;;4.78;4.13;;;;;;;27.80;41.26;100037.72;5076878;28;20031;-55
2022/08/14 10:15:50;;;;;;;4.97;3.90;;;;;;;27.65;42.50;100046.09;5058244;28;20020;-54
2022/08/14 10:18:18;;;;;;;5.57;4.30;;;;;;;27.96;42.47;100078.00;5052873;28;20036;-54
2022/08/14 10:20:56;;;;;;;6.28;3.92;;;;;;;28.21;42.47;100075.84;5042523;28;20056;-54
2022/08/14 10:23:24;;;;;;;7.25;4.05;;;;;;;28.20;41.76;100082.13;5046118;28;20033;-54
2022/08/14 10:25:56;;;;;;;4.75;4.03;;;;;;;28.41;40.94;100087.34;5059956;28;21028;-54
2022/08/14 10:28:22;;;;;;;7.10;4.63;;;;;;;28.45;40.60;100075.44;5054314;28;20313;-54
2022/08/14 10:30:53;;;;;;;7.22;4.80;;;;;;;28.33;40.89;100084.53;5059853;28;20028;-55
2022/08/14 10:33:29;;;;;;;4.95;4.47;;;;;;;28.28;40.86;100090.28;5061707;28;20025;-54
2022/08/14 10:35:59;;;;;;;5.43;4.20;;;;;;;28.36;40.71;100081.59;5064447;28;20040;-54
2022/08/14 10:38:26;;;;;;;5.40;4.45;;;;;;;28.33;41.33;100072.06;5061661;28;20036;-55
2022/08/14 10:40:52;;;;;;;6.57;4.72;;;;;;;28.44;41.73;100079.09;5061777;28;20027;-59
2022/08/14 10:43:20;;;;;;;4.70;4.18;;;;;;;28.07;40.96;100032.63;5042171;28;20049;-55
2022/08/14 10:45:55;;;;;;;6.63;4.50;;;;;;;28.13;41.00;100049.03;5054982;28;20049;-54
2022/08/14 10:48:20;;;;;;;4.68;4.07;;;;;;;28.26;41.17;100073.56;5061998;28;20042;-55
2022/08/14 10:50:50;;;;;;;4.40;4.05;;;;;;;28.25;40.94;100077.25;5056074;28;20330;-54
2022/08/14 10:53:36;;;;;;;4.68;3.90;;;;;;;27.87;41.50;100070.81;5044208;28;20339;-55
2022/08/14 10:56:07;;;;;;;5.55;4.50;;;;;;;28.00;41.47;100039.47;5061001;28;20246;-54
2022/08/14 10:58:33;;;;;;;5.45;4.40;;;;;;;28.29;41.87;100069.81;5061891;28;20044;-54
2022/08/14 11:01:06;;;;;;;6.03;4.20;;;;;;;28.32;41.44;100073.06;5060052;28;20091;-54
2022/08/14 11:03:42;;;;;;;7.90;4.65;;;;;;;28.14;41.96;100029.41;5057667;28;20100;-54
2022/08/14 11:06:15;;;;;;;5.88;4.18;;;;;;;28.09;41.42;100034.31;5063064;28;20290;-55
2022/08/14 11:08:41;;;;;;;5.32;4.40;;;;;;;28.52;41.82;100065.91;5066679;28;20035;-55
2022/08/14 11:11:06;;;;;;;4.95;4.30;;;;;;;28.45;40.48;100066.59;5060966;28;20017;-56
2022/08/14 11:13:32;;;;;;;7.25;4.68;;;;;;;28.50;40.84;100067.84;5065406;28;20013;-54
2022/08/14 11:16:00;;;;;;;7.72;4.65;;;;;;;28.32;41.12;100059.72;5065540;28;20025;-54
2022/08/14 11:18:27;;;;;;;6.72;4.38;;;;;;;28.60;40.87;100073.19;5062578;28;20017;-54
2022/08/14 11:20:58;;;;;;;8.68;7.47;;;;;;;28.73;40.78;100063.13;5065399;28;20087;-54
2022/08/14 11:23:34;;;;;;;6.88;4.13;;;;;;;28.82;40.79;100055.25;5060541;28;20051;-55
2022/08/14 11:26:01;;;;;;;6.57;4.47;;;;;;;28.98;41.18;100054.69;5061633;28;20096;-55
2022/08/14 11:28:40;;;;;;;8.50;4.53;;;;;;;28.61;41.56;100012.75;5063104;28;20046;-56
2022/08/14 11:31:12;;;;;;;4.82;4.22;;;;;;;28.53;39.81;100008.09;5048715;28;20029;-55
2022/08/14 11:33:39;;;;;;;5.55;4.78;;;;;;;28.77;41.04;100049.53;5045430;28;20301;-54
2022/08/14 11:36:08;;;;;;;5.65;4.53;;;;;;;28.88;40.22;100050.19;5050553;28;20021;-54
2022/08/14 11:38:39;;;;;;;4.78;4.38;;;;;;;28.99;40.69;100051.03;5061009;28;20109;-54
2022/08/14 11:41:06;;;;;;;6.47;4.43;;;;;;;29.06;41.08;100047.66;5073782;28;20033;-54